createdAt,value
2018-11-13T00:02:27.765Z,9.10
2018-11-13T00:04:56.151Z,9.10
2018-11-13T00:07:24.610Z,9.10
2018-11-13T00:09:52.962Z,9.10
2018-11-13T00:12:21.342Z,9.10
2018-11-13T00:14:49.735Z,9.10
2018-11-13T00:17:18.116Z,9.10
2018-11-13T00:19:46.991Z,9.10
2018-11-13T00:22:15.349Z,9.10
2018-11-13T00:24:43.734Z,9.10
2018-11-13T00:27:12.158Z,9.10
2018-11-13T00:29:40.585Z,9.10
2018-11-13T00:32:08.973Z,9.10
2018-11-13T00:34:37.327Z,9.10
2018-11-13T00:37:05.790Z,9.10
2018-11-13T00:39:34.170Z,9.10
2018-11-13T00:42:02.577Z,9.10
2018-11-13T00:44:31.219Z,9.10
2018-11-13T00:46:59.622Z,9.10
2018-11-13T00:49:28.026Z,9.10
2018-11-13T00:51:56.449Z,9.10
2018-11-13T00:54:24.823Z,9.10
2018-11-13T00:56:54.019Z,9.10
2018-11-13T00:59:22.947Z,9.10
2018-11-13T01:01:51.306Z,9.10
2018-11-13T01:04:19.693Z,9.10
2018-11-13T01:06:48.323Z,9.10
2018-11-13T01:09:16.789Z,9.10
2018-11-13T01:11:45.168Z,9.10
2018-11-13T01:14:13.574Z,9.10
2018-11-13T01:16:41.945Z,9.10
2018-11-13T01:19:10.914Z,9.10
2018-11-13T01:21:39.405Z,9.10
2018-11-13T01:24:07.994Z,9.10
2018-11-13T01:26:36.418Z,9.10
2018-11-13T01:29:05.177Z,9.10
2018-11-13T01:31:33.659Z,9.10
2018-11-13T01:34:02.019Z,9.10
2018-11-13T01:36:31.069Z,9.20
2018-11-13T01:38:59.518Z,9.20
2018-11-13T01:41:27.931Z,9.20
2018-11-13T01:43:56.314Z,9.20
2018-11-13T01:46:24.734Z,9.20
2018-11-13T01:48:53.247Z,9.10
2018-11-13T01:51:21.556Z,9.10
2018-11-13T01:53:49.941Z,9.10
2018-11-13T01:56:18.342Z,9.10
2018-11-13T01:58:46.738Z,9.10
2018-11-13T02:01:15.143Z,9.10
2018-11-13T02:03:43.533Z,9.10
2018-11-13T02:06:11.953Z,9.10
2018-11-13T02:08:40.410Z,9.10
2018-11-13T02:11:08.798Z,9.10
2018-11-13T02:13:37.214Z,9.10
2018-11-13T02:16:06.313Z,9.20
2018-11-13T02:18:34.709Z,9.20
2018-11-13T02:21:03.114Z,9.20
2018-11-13T02:23:31.477Z,9.10
2018-11-13T02:26:00.000Z,9.20
2018-11-13T02:28:28.374Z,9.20
2018-11-13T02:30:56.846Z,9.20
2018-11-13T02:33:25.851Z,9.20
2018-11-13T02:36:00.878Z,9.20
2018-11-13T02:38:29.318Z,9.20
2018-11-13T02:40:57.689Z,9.20
2018-11-13T02:43:26.190Z,9.20
2018-11-13T02:45:54.578Z,9.20
2018-11-13T02:48:23.242Z,9.20
2018-11-13T02:50:51.613Z,9.20
2018-11-13T02:53:20.066Z,9.20
2018-11-13T02:55:48.887Z,9.20
2018-11-13T02:58:17.338Z,9.20
2018-11-13T03:00:45.775Z,9.20
2018-11-13T03:03:14.192Z,9.20
2018-11-13T03:05:42.582Z,9.20
2018-11-13T03:08:10.982Z,9.20
2018-11-13T03:10:39.346Z,9.20
2018-11-13T03:13:07.814Z,9.20
2018-11-13T03:15:36.275Z,9.20
2018-11-13T03:18:04.806Z,9.20
2018-11-13T03:20:33.249Z,9.20
2018-11-13T03:23:01.609Z,9.20
2018-11-13T03:25:33.054Z,9.20
2018-11-13T03:28:02.015Z,9.20
2018-11-13T03:30:30.361Z,9.20
2018-11-13T03:32:58.802Z,9.20
2018-11-13T03:35:27.194Z,9.20
2018-11-13T03:37:55.773Z,9.20
2018-11-13T03:40:24.180Z,9.20
2018-11-13T03:42:52.529Z,9.10
2018-11-13T03:45:21.001Z,9.10
2018-11-13T03:47:49.405Z,9.10
2018-11-13T03:50:19.044Z,9.10
2018-11-13T03:52:47.657Z,9.10
2018-11-13T03:55:16.766Z,9.10
2018-11-13T03:57:45.745Z,9.00
2018-11-13T04:00:15.415Z,9.00
2018-11-13T04:02:43.885Z,9.00
2018-11-13T04:05:13.370Z,9.00
2018-11-13T04:07:43.984Z,9.00
2018-11-13T04:10:13.663Z,9.00
2018-11-13T04:12:42.198Z,9.00
2018-11-13T04:15:12.238Z,9.00
2018-11-13T04:17:40.921Z,8.90
2018-11-13T04:20:12.438Z,8.90
2018-11-13T04:22:41.103Z,8.90
2018-11-13T04:25:09.550Z,8.90
2018-11-13T04:27:38.022Z,8.90
2018-11-13T04:30:08.150Z,8.90
2018-11-13T04:32:36.582Z,8.90
2018-11-13T04:35:05.983Z,8.90
2018-11-13T04:37:34.373Z,8.80
2018-11-13T04:40:03.593Z,8.80
2018-11-13T04:42:31.969Z,8.80
2018-11-13T04:45:00.406Z,8.80
2018-11-13T04:47:29.469Z,8.80
2018-11-13T04:49:57.917Z,8.80
2018-11-13T04:52:26.324Z,8.80
2018-11-13T04:54:54.698Z,8.80
2018-11-13T04:57:23.186Z,8.80
2018-11-13T04:59:51.764Z,8.80
2018-11-13T05:02:20.192Z,8.90
2018-11-13T05:04:49.119Z,8.90
2018-11-13T05:07:17.470Z,8.90
2018-11-13T05:09:45.910Z,9.00
2018-11-13T05:12:14.338Z,9.00
2018-11-13T05:14:42.971Z,9.00
2018-11-13T05:17:11.366Z,9.00
2018-11-13T05:19:39.740Z,9.10
2018-11-13T05:22:08.110Z,9.10
2018-11-13T05:24:36.590Z,9.10
2018-11-13T05:27:05.451Z,9.20
2018-11-13T05:29:33.832Z,9.20
2018-11-13T05:32:02.232Z,9.20
2018-11-13T05:34:30.629Z,9.20
2018-11-13T05:36:59.045Z,9.20
2018-11-13T05:39:27.409Z,9.30
2018-11-13T05:41:55.842Z,9.30
2018-11-13T05:44:24.245Z,9.30
2018-11-13T05:46:52.712Z,9.40
2018-11-13T05:49:21.119Z,9.40
2018-11-13T05:51:49.545Z,9.40
2018-11-13T05:54:17.926Z,9.50
2018-11-13T05:56:46.331Z,9.50
2018-11-13T05:59:14.733Z,9.50
2018-11-13T06:01:43.090Z,9.40
2018-11-13T06:04:11.565Z,9.40
2018-11-13T06:06:39.942Z,9.40
2018-11-13T06:09:08.972Z,9.50
2018-11-13T06:11:37.474Z,9.40
2018-11-13T06:14:06.403Z,9.40
2018-11-13T06:16:34.823Z,9.40
2018-11-13T06:19:03.520Z,9.40
2018-11-13T06:21:31.915Z,9.50
2018-11-13T06:24:00.295Z,9.50
2018-11-13T06:26:29.449Z,9.50
2018-11-13T06:28:57.963Z,9.50
2018-11-13T06:31:26.393Z,9.60
2018-11-13T06:33:54.771Z,9.60
2018-11-13T06:36:23.204Z,9.60
2018-11-13T06:38:51.695Z,9.60
2018-11-13T06:41:20.078Z,9.60
2018-11-13T06:43:49.365Z,9.70
2018-11-13T06:46:17.729Z,9.70
2018-11-13T06:48:46.130Z,9.70
2018-11-13T06:51:15.033Z,9.70
2018-11-13T06:53:54.805Z,9.70
2018-11-13T06:56:23.219Z,9.70
2018-11-13T06:58:52.776Z,9.70
2018-11-13T07:01:21.206Z,9.70
2018-11-13T07:03:50.885Z,9.70
2018-11-13T07:06:21.343Z,9.80
2018-11-13T07:08:49.740Z,9.70
2018-11-13T07:11:18.380Z,9.80
2018-11-13T07:13:46.721Z,9.80
2018-11-13T07:16:15.116Z,9.80
2018-11-13T07:18:43.555Z,9.80
2018-11-13T07:21:11.918Z,9.80
2018-11-13T07:23:40.318Z,9.90
2018-11-13T07:26:08.874Z,9.80
2018-11-13T07:28:37.552Z,9.90
2018-11-13T07:31:06.045Z,9.90
2018-11-13T07:33:34.881Z,9.90
2018-11-13T07:36:04.097Z,9.90
2018-11-13T07:38:32.498Z,9.90
2018-11-13T07:41:00.885Z,9.90
2018-11-13T07:43:29.269Z,9.90
2018-11-13T07:45:57.665Z,10.00
2018-11-13T07:48:26.018Z,10.00
2018-11-13T07:50:54.556Z,10.10
2018-11-13T07:53:22.966Z,10.10
2018-11-13T07:55:51.328Z,10.10
2018-11-13T07:58:19.756Z,10.20
2018-11-13T08:00:48.114Z,10.20
2018-11-13T08:03:38.410Z,10.20
2018-11-13T08:06:07.911Z,10.20
2018-11-13T08:08:36.262Z,10.20
2018-11-13T08:11:05.289Z,10.20
2018-11-13T08:13:34.412Z,10.20
2018-11-13T08:16:02.793Z,10.30
2018-11-13T08:18:31.863Z,10.30
2018-11-13T08:21:00.248Z,10.40
2018-11-13T08:23:28.760Z,10.50
2018-11-13T08:25:57.131Z,10.60
2018-11-13T08:28:25.633Z,10.60
2018-11-13T08:30:53.942Z,10.70
2018-11-13T08:33:22.329Z,10.80
2018-11-13T08:35:50.729Z,11.00
2018-11-13T08:38:19.084Z,11.30
2018-11-13T08:40:47.493Z,11.40
2018-11-13T08:43:15.933Z,11.50
2018-11-13T08:45:44.325Z,11.60
2018-11-13T08:48:12.762Z,11.70
2018-11-13T08:50:41.277Z,11.80
2018-11-13T08:53:09.608Z,11.90
2018-11-13T08:55:38.014Z,12.00
2018-11-13T08:58:06.761Z,11.80
2018-11-13T09:00:35.526Z,11.80
2018-11-13T09:03:03.938Z,11.80
2018-11-13T09:05:32.358Z,11.80
2018-11-13T09:08:00.797Z,11.80
2018-11-13T09:10:29.215Z,11.90
2018-11-13T09:12:57.600Z,11.80
2018-11-13T09:15:26.151Z,11.80
2018-11-13T09:17:54.591Z,11.60
2018-11-13T09:20:23.000Z,11.50
2018-11-13T09:22:52.075Z,11.40
2018-11-13T09:25:22.649Z,11.30
2018-11-13T09:27:51.030Z,11.30
2018-11-13T09:30:20.892Z,11.20
2018-11-13T09:32:49.606Z,11.00
2018-11-13T09:35:18.628Z,10.80
2018-11-13T09:37:46.980Z,10.60
2018-11-13T09:40:18.648Z,10.50
2018-11-13T09:42:48.260Z,10.40
2018-11-13T09:45:16.918Z,10.40
2018-11-13T09:47:45.474Z,10.40
2018-11-13T09:50:15.423Z,10.60
2018-11-13T09:52:45.275Z,10.70
2018-11-13T09:55:15.018Z,10.90
2018-11-13T09:57:43.393Z,11.00
2018-11-13T10:00:16.186Z,11.00
2018-11-13T10:02:46.871Z,11.00
2018-11-13T10:05:15.831Z,11.10
2018-11-13T10:07:44.466Z,11.10
2018-11-13T10:10:13.222Z,11.20
2018-11-13T10:12:41.626Z,11.30
2018-11-13T10:15:12.630Z,11.20
2018-11-13T10:17:41.041Z,11.20
2018-11-13T10:20:10.783Z,11.30
2018-11-13T10:22:39.438Z,11.20
2018-11-13T10:25:08.757Z,11.30
2018-11-13T10:27:37.285Z,11.50
2018-11-13T10:30:08.157Z,11.60
2018-11-13T10:32:36.625Z,11.60
2018-11-13T10:35:05.944Z,11.70
2018-11-13T10:37:34.341Z,11.70
2018-11-13T10:40:02.737Z,11.50
2018-11-13T10:42:31.129Z,11.40
2018-11-13T10:44:59.533Z,11.60
2018-11-13T10:47:28.508Z,11.70
2018-11-13T10:49:56.880Z,11.70
2018-11-13T10:52:25.379Z,12.20
2018-11-13T10:54:53.797Z,12.60
2018-11-13T10:57:22.277Z,13.00
2018-11-13T10:59:50.672Z,13.30
2018-11-13T11:02:24.798Z,13.30
2018-11-13T11:04:53.257Z,13.60
2018-11-13T11:07:21.675Z,14.00
2018-11-13T11:09:50.808Z,13.60
2018-11-13T11:12:19.764Z,14.00
2018-11-13T11:14:48.160Z,13.90
2018-11-13T11:17:16.525Z,13.70
2018-11-13T11:19:44.950Z,13.60
2018-11-13T11:22:13.334Z,13.80
2018-11-13T11:24:41.760Z,14.20
2018-11-13T11:27:10.146Z,14.10
2018-11-13T11:29:38.510Z,14.30
2018-11-13T11:32:06.983Z,14.80
2018-11-13T11:34:35.447Z,14.90
2018-11-13T11:37:03.834Z,15.00
2018-11-13T11:39:32.243Z,14.60
2018-11-13T11:42:00.685Z,14.30
2018-11-13T11:44:29.188Z,14.50
2018-11-13T11:46:57.670Z,15.20
2018-11-13T11:49:26.391Z,14.40
2018-11-13T11:51:54.803Z,13.80
2018-11-13T11:54:23.245Z,14.20
2018-11-13T11:56:51.646Z,14.30
2018-11-13T11:59:20.001Z,13.90
2018-11-13T12:01:48.465Z,13.80
2018-11-13T12:04:16.925Z,13.70
2018-11-13T12:06:45.310Z,13.50
2018-11-13T12:09:13.730Z,13.50
2018-11-13T12:11:42.269Z,13.60
2018-11-13T12:14:10.961Z,13.60
2018-11-13T12:16:39.437Z,13.60
2018-11-13T12:19:08.638Z,13.70
2018-11-13T12:21:37.107Z,13.50
2018-11-13T12:24:06.083Z,13.40
2018-11-13T12:26:34.918Z,13.20
2018-11-13T12:29:03.429Z,13.10
2018-11-13T12:31:31.986Z,13.10
2018-11-13T12:34:00.350Z,13.00
2018-11-13T12:36:28.750Z,13.10
2018-11-13T12:38:57.186Z,13.00
2018-11-13T12:41:25.613Z,13.00
2018-11-13T12:43:53.995Z,13.20
2018-11-13T12:46:22.436Z,13.20
2018-11-13T12:48:50.951Z,13.10
2018-11-13T12:51:24.531Z,13.20
2018-11-13T12:53:53.823Z,13.10
2018-11-13T12:56:22.208Z,13.10
2018-11-13T12:58:50.593Z,13.10
2018-11-13T13:01:19.621Z,13.20
2018-11-13T13:03:48.082Z,13.20
2018-11-13T13:06:16.539Z,13.30
2018-11-13T13:08:45.069Z,13.30
2018-11-13T13:11:13.450Z,13.30
2018-11-13T13:13:44.409Z,13.20
2018-11-13T13:16:14.573Z,13.20
2018-11-13T13:18:42.996Z,13.20
2018-11-13T13:21:11.666Z,13.10
2018-11-13T13:23:40.123Z,13.20
2018-11-13T13:26:08.800Z,13.40
2018-11-13T13:28:37.207Z,13.40
2018-11-13T13:31:05.906Z,13.60
2018-11-13T13:33:34.305Z,13.50
2018-11-13T13:36:04.318Z,13.60
2018-11-13T13:38:35.164Z,13.60
2018-11-13T13:41:04.981Z,13.70
2018-11-13T13:43:33.769Z,14.00
2018-11-13T13:46:02.329Z,14.20
2018-11-13T13:48:30.744Z,14.30
2018-11-13T13:50:59.756Z,14.20
2018-11-13T13:53:28.500Z,14.20
2018-11-13T13:55:56.919Z,14.20
2018-11-13T13:58:25.783Z,14.00
2018-11-13T14:00:54.865Z,14.00
2018-11-13T14:03:23.182Z,14.00
2018-11-13T14:05:51.631Z,13.90
2018-11-13T14:08:20.343Z,13.70
2018-11-13T14:10:48.766Z,13.60
2018-11-13T14:13:17.544Z,13.60
2018-11-13T14:15:46.018Z,13.60
2018-11-13T14:18:14.418Z,13.50
2018-11-13T14:20:42.927Z,13.40
2018-11-13T14:23:11.316Z,13.40
2018-11-13T14:25:39.743Z,13.30
2018-11-13T14:28:08.264Z,13.20
2018-11-13T14:30:37.522Z,13.10
2018-11-13T14:33:07.253Z,13.00
2018-11-13T14:35:35.774Z,13.00
2018-11-13T14:38:04.427Z,12.90
2018-11-13T14:40:41.118Z,12.80
2018-11-13T14:43:10.226Z,12.80
2018-11-13T14:45:38.706Z,12.80
2018-11-13T14:48:07.649Z,12.80
2018-11-13T14:50:36.817Z,12.70
2018-11-13T14:53:06.055Z,12.70
2018-11-13T14:55:35.826Z,12.60
2018-11-13T14:58:05.173Z,12.60
2018-11-13T15:00:34.665Z,12.50
2018-11-13T15:03:04.177Z,12.50
2018-11-13T15:05:33.182Z,12.40
2018-11-13T15:08:04.582Z,12.40
2018-11-13T15:10:48.952Z,12.40
2018-11-13T15:13:17.867Z,12.40
2018-11-13T15:15:46.249Z,12.30
2018-11-13T15:18:14.800Z,12.30
2018-11-13T15:20:43.590Z,12.20
2018-11-13T15:23:12.723Z,12.20
2018-11-13T15:25:41.613Z,12.20
2018-11-13T15:28:10.442Z,12.10
2018-11-13T15:30:42.199Z,12.10
2018-11-13T15:33:14.985Z,12.10
2018-11-13T15:35:43.393Z,12.00
2018-11-13T15:38:11.885Z,12.00
2018-11-13T15:40:40.324Z,11.90
2018-11-13T15:43:08.761Z,11.90
2018-11-13T15:45:37.193Z,11.90
2018-11-13T15:48:07.276Z,11.80
2018-11-13T15:50:36.537Z,11.80
2018-11-13T15:53:05.371Z,11.70
2018-11-13T15:55:33.825Z,11.70
2018-11-13T15:58:02.258Z,11.60
2018-11-13T16:00:33.777Z,11.60
2018-11-13T16:03:18.949Z,11.50
2018-11-13T16:05:55.023Z,11.40
2018-11-13T16:08:23.391Z,11.40
2018-11-13T16:10:52.242Z,11.40
2018-11-13T16:13:20.714Z,11.40
2018-11-13T16:15:49.094Z,11.40
2018-11-13T16:18:19.064Z,11.40
2018-11-13T16:20:47.513Z,11.30
2018-11-13T16:23:16.018Z,11.30
2018-11-13T16:25:44.469Z,11.30
2018-11-13T16:28:13.001Z,11.30
2018-11-13T16:30:41.606Z,11.20
2018-11-13T16:33:09.918Z,11.20
2018-11-13T16:35:38.430Z,11.20
2018-11-13T16:38:08.429Z,11.20
2018-11-13T16:40:36.829Z,11.20
2018-11-13T16:43:05.451Z,11.20
2018-11-13T16:45:34.630Z,11.10
2018-11-13T16:48:04.015Z,11.10
2018-11-13T16:50:34.251Z,11.10
2018-11-13T16:53:02.693Z,11.00
2018-11-13T16:55:36.391Z,11.00
2018-11-13T16:58:06.060Z,10.90
2018-11-13T17:00:34.533Z,10.90
2018-11-13T17:03:03.469Z,10.90
2018-11-13T17:05:32.054Z,10.80
2018-11-13T17:08:00.350Z,10.80
2018-11-13T17:10:30.109Z,10.80
2018-11-13T17:12:59.131Z,10.80
2018-11-13T17:15:28.704Z,10.70
2018-11-13T17:17:58.589Z,10.80
2018-11-13T17:20:27.063Z,10.70
2018-11-13T17:22:55.590Z,10.60
2018-11-13T17:25:25.745Z,10.60
2018-11-13T17:27:54.788Z,10.60
2018-11-13T17:30:25.326Z,10.60
2018-11-13T17:32:54.552Z,10.50
2018-11-13T17:35:24.169Z,10.50
2018-11-13T17:37:53.408Z,10.50
2018-11-13T17:40:24.333Z,10.40
2018-11-13T17:42:54.001Z,10.50
2018-11-13T17:45:24.969Z,10.40
2018-11-13T17:47:53.383Z,10.40
2018-11-13T17:50:28.810Z,10.30
2018-11-13T17:52:57.242Z,10.30
2018-11-13T17:55:27.505Z,10.30
2018-11-13T17:58:07.152Z,10.20
2018-11-13T18:00:36.893Z,10.20
2018-11-13T18:03:06.514Z,10.20
2018-11-13T18:05:35.390Z,10.10
2018-11-13T18:08:05.043Z,10.10
2018-11-13T18:10:34.294Z,10.10
2018-11-13T18:13:09.922Z,10.10
2018-11-13T18:15:38.368Z,10.10
2018-11-13T18:18:07.165Z,10.10
2018-11-13T18:20:36.782Z,10.00
2018-11-13T18:23:05.709Z,10.00
2018-11-13T18:25:34.111Z,10.00
2018-11-13T18:28:03.231Z,9.90
2018-11-13T18:30:33.028Z,10.00
2018-11-13T18:33:02.228Z,9.90
2018-11-13T18:35:32.144Z,9.90
2018-11-13T18:38:02.066Z,9.90
2018-11-13T18:40:30.475Z,9.90
2018-11-13T18:43:00.453Z,9.90
2018-11-13T18:45:31.797Z,9.80
2018-11-13T18:48:00.823Z,9.80
2018-11-13T18:50:33.798Z,9.70
2018-11-13T18:53:02.587Z,9.80
2018-11-13T18:55:31.456Z,9.70
2018-11-13T18:58:00.859Z,9.70
2018-11-13T19:00:30.730Z,9.60
2018-11-13T19:03:00.165Z,9.60
2018-11-13T19:05:29.072Z,9.60
2018-11-13T19:07:57.967Z,9.60
2018-11-13T19:10:33.001Z,9.60
2018-11-13T19:13:02.299Z,9.50
2018-11-13T19:15:32.163Z,9.50
2018-11-13T19:18:00.789Z,9.50
2018-11-13T19:20:29.431Z,9.40
2018-11-13T19:22:57.926Z,9.40
2018-11-13T19:25:27.756Z,9.30
2018-11-13T19:27:57.239Z,9.20
2018-11-13T19:30:25.722Z,9.20
2018-11-13T19:32:54.170Z,9.10
2018-11-13T19:35:23.663Z,9.10
2018-11-13T19:40:22.733Z,9.00
2018-11-13T19:42:52.400Z,9.00
2018-11-13T19:45:21.139Z,9.00
2018-11-13T19:47:49.470Z,9.00
2018-11-13T19:50:36.193Z,9.00
2018-11-13T19:53:05.718Z,9.00
2018-11-13T19:55:34.609Z,8.90
2018-11-13T19:58:03.042Z,8.90
2018-11-13T20:00:39.196Z,8.90
2018-11-13T20:03:08.762Z,8.90
2018-11-13T20:05:37.216Z,8.90
2018-11-13T20:08:07.338Z,8.90
2018-11-13T20:10:37.102Z,8.80
2018-11-13T20:13:06.448Z,8.80
2018-11-13T20:15:35.477Z,8.70
2018-11-13T20:18:03.917Z,8.70
2018-11-13T20:20:33.301Z,8.60
2018-11-13T20:23:03.060Z,8.60
2018-11-13T20:25:32.561Z,8.60
2018-11-13T20:28:01.053Z,8.60
2018-11-13T20:30:33.193Z,8.60
2018-11-13T20:33:01.590Z,8.60
2018-11-13T20:35:29.993Z,8.60
2018-11-13T20:37:59.023Z,8.60
2018-11-13T20:40:28.621Z,8.60
2018-11-13T20:42:58.310Z,8.60
2018-11-13T20:45:26.762Z,8.60
2018-11-13T20:47:55.155Z,8.50
2018-11-13T20:50:25.701Z,8.50
2018-11-13T20:52:54.141Z,8.50
2018-11-13T20:55:22.554Z,8.50
2018-11-13T20:57:50.926Z,8.40
2018-11-13T21:00:20.478Z,8.40
2018-11-13T21:02:48.974Z,8.40
2018-11-13T21:05:17.603Z,8.40
2018-11-13T21:07:46.111Z,8.40
2018-11-13T21:10:17.024Z,8.40
2018-11-13T21:12:45.819Z,8.40
2018-11-13T21:15:15.526Z,8.30
2018-11-13T21:17:43.977Z,8.30
2018-11-13T21:20:14.118Z,8.30
2018-11-13T21:22:42.635Z,8.30
2018-11-13T21:25:14.619Z,8.30
2018-11-13T21:27:43.159Z,8.30
2018-11-13T21:30:17.478Z,8.20
2018-11-13T21:32:46.669Z,8.20
2018-11-13T21:35:15.759Z,8.20
2018-11-13T21:37:45.481Z,8.20
2018-11-13T21:40:15.157Z,8.20
2018-11-13T21:42:44.234Z,8.20
2018-11-13T21:45:13.934Z,8.10
2018-11-13T21:47:42.702Z,8.10
2018-11-13T21:50:12.609Z,8.10
2018-11-13T21:52:41.842Z,8.10
2018-11-13T21:55:13.058Z,8.10
2018-11-13T21:57:42.530Z,8.10
2018-11-13T22:00:13.994Z,8.10
2018-11-13T22:02:44.968Z,8.00
2018-11-13T22:05:13.481Z,8.00
2018-11-13T22:07:41.915Z,8.00
2018-11-13T22:10:11.141Z,8.00
2018-11-13T22:12:39.503Z,8.00
2018-11-13T22:15:10.789Z,8.10
2018-11-13T22:17:38.771Z,8.10
2018-11-13T22:20:08.220Z,8.10
2018-11-13T22:22:36.806Z,8.10
2018-11-13T22:25:06.615Z,8.10
2018-11-13T22:27:35.039Z,8.10
2018-11-13T22:30:03.447Z,8.10
2018-11-13T22:32:31.918Z,8.20
2018-11-13T22:35:00.323Z,8.20
2018-11-13T22:37:28.695Z,8.20
2018-11-13T22:39:57.138Z,8.20
2018-11-13T22:42:25.601Z,8.20
2018-11-13T22:44:53.965Z,8.20
2018-11-13T22:47:22.334Z,8.30
2018-11-13T22:49:51.659Z,8.30
2018-11-13T22:52:20.046Z,8.30
2018-11-13T22:54:48.406Z,8.30
2018-11-13T22:57:16.866Z,8.30
2018-11-13T22:59:45.193Z,8.30
2018-11-13T23:02:13.648Z,8.30
2018-11-13T23:04:42.089Z,8.40
2018-11-13T23:07:10.471Z,8.40
2018-11-13T23:09:38.896Z,8.40
2018-11-13T23:12:07.336Z,8.40
2018-11-13T23:14:35.810Z,8.40
2018-11-13T23:17:04.239Z,8.40
2018-11-13T23:19:32.602Z,8.40
2018-11-13T23:22:01.614Z,8.40
2018-11-13T23:24:30.109Z,8.40
2018-11-13T23:26:58.510Z,8.40
2018-11-13T23:29:26.905Z,8.30
2018-11-13T23:31:55.285Z,8.30
2018-11-13T23:34:23.767Z,8.30
2018-11-13T23:36:52.114Z,8.30
2018-11-13T23:39:20.530Z,8.30
2018-11-13T23:41:48.964Z,8.30
2018-11-13T23:44:17.370Z,8.30
2018-11-13T23:46:45.782Z,8.30
2018-11-13T23:49:14.221Z,8.30
2018-11-13T23:51:42.580Z,8.30
2018-11-13T23:54:10.925Z,8.30
2018-11-13T23:56:39.354Z,8.30
2018-11-13T23:59:07.740Z,8.30
